sensor_id;sensor_type;location;lat;lon;timestamp;pressure;altitude;pressure_sealevel;temperature;humidity
37170;BME280;23062;13.952;100.608;2023-02-20T00:03:41;1013.08;;;28.35;54.59
37170;BME280;23062;13.952;100.608;2023-02-20T00:08:09;1013.17;;;28.19;54.90
37170;BME280;23062;13.952;100.608;2023-02-20T00:12:35;1013.23;;;28.25;54.67
37170;BME280;23062;13.952;100.608;2023-02-20T00:17:00;1013.30;;;28.24;54.63
37170;BME280;23062;13.952;100.608;2023-02-20T00:21:25;1013.33;;;28.25;54.33
37170;BME280;23062;13.952;100.608;2023-02-20T00:25:51;1013.37;;;28.34;54.11
37170;BME280;23062;13.952;100.608;2023-02-20T00:30:23;1013.43;;;28.32;53.97
37170;BME280;23062;13.952;100.608;2023-02-20T00:34:49;1013.56;;;28.55;53.66
37170;BME280;23062;13.952;100.608;2023-02-20T00:39:17;1013.63;;;28.55;53.42
37170;BME280;23062;13.952;100.608;2023-02-20T00:43:43;1013.74;;;28.62;53.14
37170;BME280;23062;13.952;100.608;2023-02-20T00:48:10;1013.82;;;28.75;53.03
37170;BME280;23062;13.952;100.608;2023-02-20T00:52:35;1013.82;;;28.77;52.75
37170;BME280;23062;13.952;100.608;2023-02-20T00:57:01;1013.87;;;28.58;52.32
37170;BME280;23062;13.952;100.608;2023-02-20T01:01:26;1013.86;;;28.26;52.45
37170;BME280;23062;13.952;100.608;2023-02-20T01:05:51;1013.84;;;28.21;52.72
37170;BME280;23062;13.952;100.608;2023-02-20T01:10:17;1013.91;;;28.39;52.83
37170;BME280;23062;13.952;100.608;2023-02-20T01:14:42;1014.02;;;28.51;52.34
37170;BME280;23062;13.952;100.608;2023-02-20T01:19:07;1014.11;;;28.45;51.96
37170;BME280;23062;13.952;100.608;2023-02-20T01:23:33;1014.14;;;28.53;50.74
37170;BME280;23062;13.952;100.608;2023-02-20T01:27:58;1014.22;;;28.58;50.65
37170;BME280;23062;13.952;100.608;2023-02-20T01:32:23;1014.28;;;28.56;49.97
37170;BME280;23062;13.952;100.608;2023-02-20T01:36:50;1014.32;;;28.77;50.13
37170;BME280;23062;13.952;100.608;2023-02-20T01:41:16;1014.36;;;28.99;50.08
37170;BME280;23062;13.952;100.608;2023-02-20T01:45:41;1014.38;;;29.08;49.56
37170;BME280;23062;13.952;100.608;2023-02-20T01:50:08;1014.44;;;29.15;49.08
37170;BME280;23062;13.952;100.608;2023-02-20T01:54:35;1014.40;;;29.23;49.43
37170;BME280;23062;13.952;100.608;2023-02-20T01:59:05;1014.44;;;29.30;49.67
37170;BME280;23062;13.952;100.608;2023-02-20T02:03:36;1014.56;;;29.36;49.84
37170;BME280;23062;13.952;100.608;2023-02-20T02:08:04;1014.60;;;29.40;49.85
37170;BME280;23062;13.952;100.608;2023-02-20T02:12:34;1014.73;;;29.43;49.71
37170;BME280;23062;13.952;100.608;2023-02-20T02:40:25;1014.94;;;29.61;49.30
37170;BME280;23062;13.952;100.608;2023-02-20T02:45:10;1014.92;;;29.61;48.91
37170;BME280;23062;13.952;100.608;2023-02-20T02:54:25;1014.99;;;29.56;48.38
37170;BME280;23062;13.952;100.608;2023-02-20T02:58:52;1014.99;;;29.49;46.48
37170;BME280;23062;13.952;100.608;2023-02-20T03:03:26;1014.95;;;29.48;46.30
37170;BME280;23062;13.952;100.608;2023-02-20T03:07:56;1014.95;;;29.62;46.65
37170;BME280;23062;13.952;100.608;2023-02-20T03:12:23;1015.00;;;29.64;45.16
37170;BME280;23062;13.952;100.608;2023-02-20T03:17:09;1014.93;;;29.66;45.00
37170;BME280;23062;13.952;100.608;2023-02-20T03:21:39;1014.88;;;29.68;45.66
37170;BME280;23062;13.952;100.608;2023-02-20T03:26:15;1014.82;;;29.75;45.56
37170;BME280;23062;13.952;100.608;2023-02-20T03:30:59;1014.79;;;29.78;45.49
37170;BME280;23062;13.952;100.608;2023-02-20T03:35:24;1014.77;;;29.80;45.93
37170;BME280;23062;13.952;100.608;2023-02-20T03:40:09;1014.69;;;29.84;45.65
37170;BME280;23062;13.952;100.608;2023-02-20T03:44:53;1014.61;;;29.93;45.70
37170;BME280;23062;13.952;100.608;2023-02-20T03:49:20;1014.55;;;29.97;45.35
37170;BME280;23062;13.952;100.608;2023-02-20T03:53:47;1014.47;;;29.98;45.90
37170;BME280;23062;13.952;100.608;2023-02-20T03:58:17;1014.37;;;30.00;45.21
37170;BME280;23062;13.952;100.608;2023-02-20T04:02:45;1014.28;;;29.96;44.48
37170;BME280;23062;13.952;100.608;2023-02-20T04:07:18;1014.21;;;29.95;44.88
37170;BME280;23062;13.952;100.608;2023-02-20T04:11:49;1014.16;;;30.03;45.71
37170;BME280;23062;13.952;100.608;2023-02-20T04:16:13;1014.04;;;30.04;45.82
37170;BME280;23062;13.952;100.608;2023-02-20T04:20:39;1013.95;;;30.08;45.16
37170;BME280;23062;13.952;100.608;2023-02-20T04:25:28;1013.90;;;30.10;45.42
37170;BME280;23062;13.952;100.608;2023-02-20T04:29:51;1013.78;;;30.19;44.47
37170;BME280;23062;13.952;100.608;2023-02-20T04:34:16;1013.71;;;30.23;44.26
37170;BME280;23062;13.952;100.608;2023-02-20T04:38:42;1013.67;;;30.22;44.39
37170;BME280;23062;13.952;100.608;2023-02-20T04:43:07;1013.68;;;30.29;44.57
37170;BME280;23062;13.952;100.608;2023-02-20T04:47:33;1013.57;;;30.29;44.52
37170;BME280;23062;13.952;100.608;2023-02-20T04:51:59;1013.51;;;30.37;43.27
37170;BME280;23062;13.952;100.608;2023-02-20T04:56:25;1013.46;;;30.35;43.75
37170;BME280;23062;13.952;100.608;2023-02-20T05:00:54;1013.40;;;30.43;41.52
37170;BME280;23062;13.952;100.608;2023-02-20T05:05:21;1013.27;;;30.47;42.60
37170;BME280;23062;13.952;100.608;2023-02-20T05:09:47;1013.25;;;30.47;42.41
37170;BME280;23062;13.952;100.608;2023-02-20T05:14:13;1013.19;;;30.52;42.95
37170;BME280;23062;13.952;100.608;2023-02-20T05:18:42;1013.12;;;30.50;43.29
37170;BME280;23062;13.952;100.608;2023-02-20T05:23:08;1013.01;;;30.55;42.50
37170;BME280;23062;13.952;100.608;2023-02-20T05:27:33;1012.89;;;30.59;42.68
37170;BME280;23062;13.952;100.608;2023-02-20T05:31:59;1012.85;;;30.58;42.04
37170;BME280;23062;13.952;100.608;2023-02-20T05:36:25;1012.84;;;30.64;41.93
37170;BME280;23062;13.952;100.608;2023-02-20T05:40:50;1012.82;;;30.65;42.05
37170;BME280;23062;13.952;100.608;2023-02-20T05:45:16;1012.65;;;30.62;42.20
37170;BME280;23062;13.952;100.608;2023-02-20T05:49:41;1012.58;;;30.59;42.84
37170;BME280;23062;13.952;100.608;2023-02-20T05:54:07;1012.45;;;30.59;43.39
37170;BME280;23062;13.952;100.608;2023-02-20T05:58:33;1012.49;;;30.61;43.73
37170;BME280;23062;13.952;100.608;2023-02-20T06:02:59;1012.32;;;30.67;43.81
37170;BME280;23062;13.952;100.608;2023-02-20T06:07:26;1012.21;;;30.76;43.03
37170;BME280;23062;13.952;100.608;2023-02-20T06:11:58;1012.10;;;30.73;43.10
37170;BME280;23062;13.952;100.608;2023-02-20T06:16:26;1012.01;;;30.69;43.67
37170;BME280;23062;13.952;100.608;2023-02-20T06:20:52;1011.94;;;30.72;43.79
37170;BME280;23062;13.952;100.608;2023-02-20T06:25:17;1011.85;;;30.73;43.23
37170;BME280;23062;13.952;100.608;2023-02-20T06:29:46;1011.75;;;30.75;43.61
37170;BME280;23062;13.952;100.608;2023-02-20T06:34:14;1011.59;;;30.79;43.22
37170;BME280;23062;13.952;100.608;2023-02-20T06:38:39;1011.57;;;30.85;43.25
37170;BME280;23062;13.952;100.608;2023-02-20T06:43:07;1011.49;;;30.92;42.47
37170;BME280;23062;13.952;100.608;2023-02-20T06:47:32;1011.42;;;30.95;43.11
37170;BME280;23062;13.952;100.608;2023-02-20T06:51:57;1011.32;;;30.89;43.34
37170;BME280;23062;13.952;100.608;2023-02-20T06:56:25;1011.36;;;30.98;43.15
37170;BME280;23062;13.952;100.608;2023-02-20T07:00:52;1011.30;;;30.84;43.77
37170;BME280;23062;13.952;100.608;2023-02-20T07:05:17;1011.22;;;30.85;43.50
37170;BME280;23062;13.952;100.608;2023-02-20T07:09:42;1011.16;;;30.81;43.51
37170;BME280;23062;13.952;100.608;2023-02-20T07:14:07;1011.08;;;30.83;42.93
37170;BME280;23062;13.952;100.608;2023-02-20T07:18:36;1010.96;;;30.91;42.38
37170;BME280;23062;13.952;100.608;2023-02-20T07:23:01;1010.91;;;30.80;43.20
37170;BME280;23062;13.952;100.608;2023-02-20T07:27:27;1010.78;;;30.90;42.86
37170;BME280;23062;13.952;100.608;2023-02-20T07:31:52;1010.68;;;30.87;42.85
37170;BME280;23062;13.952;100.608;2023-02-20T07:36:17;1010.65;;;30.87;43.12
37170;BME280;23062;13.952;100.608;2023-02-20T07:40:43;1010.53;;;30.84;42.99
37170;BME280;23062;13.952;100.608;2023-02-20T07:45:09;1010.47;;;30.86;42.97
37170;BME280;23062;13.952;100.608;2023-02-20T07:49:35;1010.38;;;30.84;43.11
37170;BME280;23062;13.952;100.608;2023-02-20T07:54:01;1010.35;;;30.91;42.67
37170;BME280;23062;13.952;100.608;2023-02-20T07:58:27;1010.23;;;30.88;43.09
37170;BME280;23062;13.952;100.608;2023-02-20T08:02:53;1010.21;;;30.93;43.01
37170;BME280;23062;13.952;100.608;2023-02-20T08:07:19;1010.11;;;31.01;43.26
37170;BME280;23062;13.952;100.608;2023-02-20T08:11:44;1010.11;;;31.00;44.11
37170;BME280;23062;13.952;100.608;2023-02-20T08:16:10;1009.98;;;31.04;44.38
37170;BME280;23062;13.952;100.608;2023-02-20T08:20:43;1010.02;;;30.98;44.85
37170;BME280;23062;13.952;100.608;2023-02-20T08:25:09;1009.91;;;30.99;44.50
37170;BME280;23062;13.952;100.608;2023-02-20T08:29:34;1009.85;;;30.95;44.63
37170;BME280;23062;13.952;100.608;2023-02-20T08:33:59;1009.82;;;30.99;44.43
37170;BME280;23062;13.952;100.608;2023-02-20T08:38:35;1009.78;;;30.97;44.57
37170;BME280;23062;13.952;100.608;2023-02-20T08:42:57;1009.71;;;31.05;43.73
37170;BME280;23062;13.952;100.608;2023-02-20T08:47:25;1009.64;;;31.08;44.26
37170;BME280;23062;13.952;100.608;2023-02-20T08:51:54;1009.67;;;31.14;44.92
37170;BME280;23062;13.952;100.608;2023-02-20T08:56:20;1009.64;;;31.14;45.37
37170;BME280;23062;13.952;100.608;2023-02-20T09:00:46;1009.56;;;31.13;45.87
37170;BME280;23062;13.952;100.608;2023-02-20T09:05:11;1009.56;;;31.12;46.11
37170;BME280;23062;13.952;100.608;2023-02-20T09:09:36;1009.52;;;31.11;46.03
37170;BME280;23062;13.952;100.608;2023-02-20T09:14:01;1009.52;;;31.10;46.79
37170;BME280;23062;13.952;100.608;2023-02-20T09:18:27;1009.55;;;31.06;47.72
37170;BME280;23062;13.952;100.608;2023-02-20T09:22:56;1009.60;;;31.05;48.47
37170;BME280;23062;13.952;100.608;2023-02-20T09:27:20;1009.67;;;31.02;49.01
37170;BME280;23062;13.952;100.608;2023-02-20T09:31:45;1009.68;;;31.02;49.67
37170;BME280;23062;13.952;100.608;2023-02-20T09:36:11;1009.64;;;30.99;49.81
37170;BME280;23062;13.952;100.608;2023-02-20T09:40:37;1009.64;;;30.95;50.12
37170;BME280;23062;13.952;100.608;2023-02-20T09:45:20;1009.69;;;30.98;50.11
37170;BME280;23062;13.952;100.608;2023-02-20T09:49:46;1009.68;;;31.03;49.59
37170;BME280;23062;13.952;100.608;2023-02-20T09:54:28;1009.73;;;31.00;49.59
37170;BME280;23062;13.952;100.608;2023-02-20T10:03:56;1009.77;;;30.97;49.52
37170;BME280;23062;13.952;100.608;2023-02-20T10:08:22;1009.77;;;30.94;49.43
37170;BME280;23062;13.952;100.608;2023-02-20T10:22:40;1009.83;;;30.92;49.49
37170;BME280;23062;13.952;100.608;2023-02-20T10:32:06;1009.85;;;30.88;49.74
37170;BME280;23062;13.952;100.608;2023-02-20T10:45:48;1009.91;;;30.87;49.63
37170;BME280;23062;13.952;100.608;2023-02-20T10:50:21;1009.92;;;30.87;49.72
37170;BME280;23062;13.952;100.608;2023-02-20T10:54:53;1009.97;;;30.86;49.77
37170;BME280;23062;13.952;100.608;2023-02-20T10:59:20;1009.99;;;30.86;49.44
37170;BME280;23062;13.952;100.608;2023-02-20T11:08:42;1010.14;;;30.79;50.06
37170;BME280;23062;13.952;100.608;2023-02-20T11:13:09;1010.20;;;30.75;50.08
37170;BME280;23062;13.952;100.608;2023-02-20T11:17:36;1010.19;;;30.72;50.30
37170;BME280;23062;13.952;100.608;2023-02-20T11:22:01;1010.26;;;30.72;50.58
37170;BME280;23062;13.952;100.608;2023-02-20T11:26:31;1010.32;;;30.71;50.64
37170;BME280;23062;13.952;100.608;2023-02-20T11:31:07;1010.41;;;30.69;50.68
37170;BME280;23062;13.952;100.608;2023-02-20T11:35:37;1010.46;;;30.69;50.72
37170;BME280;23062;13.952;100.608;2023-02-20T11:40:03;1010.50;;;30.67;50.78
37170;BME280;23062;13.952;100.608;2023-02-20T11:44:30;1010.56;;;30.67;50.82
37170;BME280;23062;13.952;100.608;2023-02-20T11:49:07;1010.63;;;30.67;50.83
37170;BME280;23062;13.952;100.608;2023-02-20T11:53:36;1010.65;;;30.65;50.86
37170;BME280;23062;13.952;100.608;2023-02-20T11:58:02;1010.69;;;30.65;50.69
37170;BME280;23062;13.952;100.608;2023-02-20T12:02:28;1010.77;;;30.62;50.71
37170;BME280;23062;13.952;100.608;2023-02-20T12:06:53;1010.85;;;30.60;50.76
37170;BME280;23062;13.952;100.608;2023-02-20T12:11:20;1010.90;;;30.63;50.93
37170;BME280;23062;13.952;100.608;2023-02-20T12:15:50;1010.97;;;30.69;50.93
37170;BME280;23062;13.952;100.608;2023-02-20T12:20:21;1011.09;;;30.84;50.59
37170;BME280;23062;13.952;100.608;2023-02-20T12:25:14;1011.11;;;30.90;50.30
37170;BME280;23062;13.952;100.608;2023-02-20T12:29:56;1011.19;;;30.94;50.21
37170;BME280;23062;13.952;100.608;2023-02-20T12:34:37;1011.30;;;30.95;50.25
37170;BME280;23062;13.952;100.608;2023-02-20T12:58:18;1011.55;;;30.94;50.77
37170;BME280;23062;13.952;100.608;2023-02-20T13:02:50;1011.53;;;30.93;50.83
37170;BME280;23062;13.952;100.608;2023-02-20T13:07:27;1011.60;;;30.92;50.92
37170;BME280;23062;13.952;100.608;2023-02-20T13:11:50;1011.59;;;30.92;50.88
37170;BME280;23062;13.952;100.608;2023-02-20T13:21:07;1011.72;;;30.91;50.96
37170;BME280;23062;13.952;100.608;2023-02-20T13:25:36;1011.79;;;30.90;51.04
37170;BME280;23062;13.952;100.608;2023-02-20T13:30:13;1011.83;;;30.90;51.08
37170;BME280;23062;13.952;100.608;2023-02-20T13:34:37;1011.82;;;30.89;51.17
37170;BME280;23062;13.952;100.608;2023-02-20T13:39:33;1011.87;;;30.89;51.22
37170;BME280;23062;13.952;100.608;2023-02-20T13:44:04;1011.88;;;30.89;51.29
37170;BME280;23062;13.952;100.608;2023-02-20T13:53:00;1011.94;;;30.83;51.57
37170;BME280;23062;13.952;100.608;2023-02-20T13:57:31;1011.98;;;30.79;51.40
37170;BME280;23062;13.952;100.608;2023-02-20T14:02:11;1012.04;;;30.74;51.62
37170;BME280;23062;13.952;100.608;2023-02-20T14:06:34;1012.05;;;30.76;51.40
37170;BME280;23062;13.952;100.608;2023-02-20T14:11:25;1012.08;;;30.75;51.44
37170;BME280;23062;13.952;100.608;2023-02-20T14:15:58;1012.05;;;30.74;51.46
37170;BME280;23062;13.952;100.608;2023-02-20T14:20:24;1012.07;;;30.75;51.53
37170;BME280;23062;13.952;100.608;2023-02-20T14:29:39;1012.18;;;30.74;51.32
37170;BME280;23062;13.952;100.608;2023-02-20T14:34:11;1012.16;;;30.72;51.45
37170;BME280;23062;13.952;100.608;2023-02-20T14:38:50;1012.18;;;30.74;51.47
37170;BME280;23062;13.952;100.608;2023-02-20T14:43:22;1012.21;;;30.72;51.31
37170;BME280;23062;13.952;100.608;2023-02-20T14:47:56;1012.18;;;30.70;51.44
37170;BME280;23062;13.952;100.608;2023-02-20T14:52:23;1012.14;;;30.70;51.31
37170;BME280;23062;13.952;100.608;2023-02-20T14:56:51;1012.13;;;30.70;51.32
37170;BME280;23062;13.952;100.608;2023-02-20T15:01:37;1012.19;;;30.71;51.43
37170;BME280;23062;13.952;100.608;2023-02-20T15:06:05;1012.24;;;30.68;51.29
37170;BME280;23062;13.952;100.608;2023-02-20T15:10:34;1012.29;;;30.69;51.32
37170;BME280;23062;13.952;100.608;2023-02-20T15:15:07;1012.38;;;30.69;51.60
37170;BME280;23062;13.952;100.608;2023-02-20T15:19:36;1012.36;;;30.68;51.54
37170;BME280;23062;13.952;100.608;2023-02-20T15:24:26;1012.38;;;30.67;51.55
37170;BME280;23062;13.952;100.608;2023-02-20T15:33:45;1012.49;;;30.68;51.54
37170;BME280;23062;13.952;100.608;2023-02-20T15:38:10;1012.45;;;30.66;51.31
37170;BME280;23062;13.952;100.608;2023-02-20T15:42:35;1012.46;;;30.65;51.38
37170;BME280;23062;13.952;100.608;2023-02-20T15:47:04;1012.53;;;30.63;51.52
37170;BME280;23062;13.952;100.608;2023-02-20T15:51:32;1012.60;;;30.64;51.47
37170;BME280;23062;13.952;100.608;2023-02-20T15:56:02;1012.53;;;30.63;51.58
37170;BME280;23062;13.952;100.608;2023-02-20T16:00:31;1012.55;;;30.63;51.33
37170;BME280;23062;13.952;100.608;2023-02-20T16:05:00;1012.53;;;30.62;51.11
37170;BME280;23062;13.952;100.608;2023-02-20T16:09:25;1012.59;;;30.63;51.23
37170;BME280;23062;13.952;100.608;2023-02-20T16:13:55;1012.53;;;30.61;51.15
37170;BME280;23062;13.952;100.608;2023-02-20T16:18:21;1012.53;;;30.60;51.35
37170;BME280;23062;13.952;100.608;2023-02-20T16:22:47;1012.56;;;30.61;51.26
37170;BME280;23062;13.952;100.608;2023-02-20T16:27:24;1012.54;;;30.61;51.17
37170;BME280;23062;13.952;100.608;2023-02-20T16:36:20;1012.46;;;30.59;51.42
37170;BME280;23062;13.952;100.608;2023-02-20T16:40:46;1012.42;;;30.59;51.07
37170;BME280;23062;13.952;100.608;2023-02-20T16:45:15;1012.42;;;30.58;51.10
37170;BME280;23062;13.952;100.608;2023-02-20T16:49:43;1012.36;;;30.57;51.13
37170;BME280;23062;13.952;100.608;2023-02-20T16:58:48;1012.35;;;30.55;51.19
37170;BME280;23062;13.952;100.608;2023-02-20T17:03:14;1012.37;;;30.56;51.22
37170;BME280;23062;13.952;100.608;2023-02-20T17:07:40;1012.43;;;30.54;51.39
37170;BME280;23062;13.952;100.608;2023-02-20T17:12:18;1012.43;;;30.52;51.43
37170;BME280;23062;13.952;100.608;2023-02-20T17:16:49;1012.42;;;30.51;51.25
37170;BME280;23062;13.952;100.608;2023-02-20T17:21:15;1012.44;;;30.52;51.33
37170;BME280;23062;13.952;100.608;2023-02-20T17:25:41;1012.48;;;30.51;51.26
37170;BME280;23062;13.952;100.608;2023-02-20T17:30:08;1012.50;;;30.49;51.35
37170;BME280;23062;13.952;100.608;2023-02-20T17:34:34;1012.49;;;30.51;51.15
37170;BME280;23062;13.952;100.608;2023-02-20T17:39:00;1012.50;;;30.51;51.01
37170;BME280;23062;13.952;100.608;2023-02-20T17:43:25;1012.43;;;30.50;50.93
37170;BME280;23062;13.952;100.608;2023-02-20T17:47:51;1012.44;;;30.50;50.79
37170;BME280;23062;13.952;100.608;2023-02-20T17:52:16;1012.41;;;30.49;50.81
37170;BME280;23062;13.952;100.608;2023-02-20T17:56:43;1012.36;;;30.50;50.92
37170;BME280;23062;13.952;100.608;2023-02-20T18:01:09;1012.28;;;30.49;50.80
37170;BME280;23062;13.952;100.608;2023-02-20T18:05:35;1012.31;;;30.48;50.80
37170;BME280;23062;13.952;100.608;2023-02-20T18:10:04;1012.25;;;30.47;50.81
37170;BME280;23062;13.952;100.608;2023-02-20T18:14:29;1012.26;;;30.47;50.74
37170;BME280;23062;13.952;100.608;2023-02-20T18:18:55;1012.26;;;30.47;50.81
37170;BME280;23062;13.952;100.608;2023-02-20T18:23:24;1012.22;;;30.45;50.76
37170;BME280;23062;13.952;100.608;2023-02-20T18:27:51;1012.28;;;30.44;50.92
37170;BME280;23062;13.952;100.608;2023-02-20T18:32:16;1012.29;;;30.43;50.93
37170;BME280;23062;13.952;100.608;2023-02-20T18:36:42;1012.23;;;30.43;51.15
37170;BME280;23062;13.952;100.608;2023-02-20T18:41:12;1012.23;;;30.41;51.02
37170;BME280;23062;13.952;100.608;2023-02-20T18:45:37;1012.22;;;30.41;51.07
37170;BME280;23062;13.952;100.608;2023-02-20T18:50:03;1012.23;;;30.40;51.15
37170;BME280;23062;13.952;100.608;2023-02-20T18:54:29;1012.16;;;30.37;51.17
37170;BME280;23062;13.952;100.608;2023-02-20T18:58:57;1012.15;;;30.38;51.16
37170;BME280;23062;13.952;100.608;2023-02-20T19:03:24;1012.20;;;30.37;51.15
37170;BME280;23062;13.952;100.608;2023-02-20T19:07:49;1012.15;;;30.36;51.19
37170;BME280;23062;13.952;100.608;2023-02-20T19:12:15;1012.09;;;30.34;51.37
37170;BME280;23062;13.952;100.608;2023-02-20T19:16:56;1012.10;;;30.35;51.33
37170;BME280;23062;13.952;100.608;2023-02-20T19:21:22;1012.08;;;30.31;51.41
37170;BME280;23062;13.952;100.608;2023-02-20T19:25:51;1012.05;;;30.30;51.31
37170;BME280;23062;13.952;100.608;2023-02-20T19:30:18;1012.04;;;30.28;51.45
37170;BME280;23062;13.952;100.608;2023-02-20T19:34:48;1012.03;;;30.27;51.33
37170;BME280;23062;13.952;100.608;2023-02-20T19:39:15;1012.03;;;30.24;51.54
37170;BME280;23062;13.952;100.608;2023-02-20T19:43:40;1012.10;;;30.24;51.50
37170;BME280;23062;13.952;100.608;2023-02-20T19:48:05;1012.09;;;30.22;51.66
37170;BME280;23062;13.952;100.608;2023-02-20T19:52:31;1012.08;;;30.20;51.70
37170;BME280;23062;13.952;100.608;2023-02-20T19:57:01;1012.05;;;30.20;51.59
37170;BME280;23062;13.952;100.608;2023-02-20T20:01:28;1012.06;;;30.19;51.64
37170;BME280;23062;13.952;100.608;2023-02-20T20:05:53;1012.07;;;30.17;51.78
37170;BME280;23062;13.952;100.608;2023-02-20T20:10:20;1012.08;;;30.16;51.79
37170;BME280;23062;13.952;100.608;2023-02-20T20:14:46;1012.08;;;30.15;51.86
37170;BME280;23062;13.952;100.608;2023-02-20T20:19:11;1012.04;;;30.15;51.79
37170;BME280;23062;13.952;100.608;2023-02-20T20:23:37;1012.12;;;30.09;51.78
37170;BME280;23062;13.952;100.608;2023-02-20T20:28:04;1012.19;;;30.05;51.75
37170;BME280;23062;13.952;100.608;2023-02-20T20:32:36;1012.21;;;30.01;51.90
37170;BME280;23062;13.952;100.608;2023-02-20T20:37:02;1012.28;;;29.95;51.73
37170;BME280;23062;13.952;100.608;2023-02-20T20:41:27;1012.29;;;29.79;51.99
37170;BME280;23062;13.952;100.608;2023-02-20T20:45:53;1012.28;;;29.85;52.25
37170;BME280;23062;13.952;100.608;2023-02-20T20:50:23;1012.30;;;29.67;52.67
37170;BME280;23062;13.952;100.608;2023-02-20T20:54:55;1012.32;;;29.48;52.87
37170;BME280;23062;13.952;100.608;2023-02-20T20:59:20;1012.32;;;29.65;52.29
37170;BME280;23062;13.952;100.608;2023-02-20T21:03:45;1012.33;;;29.70;52.21
37170;BME280;23062;13.952;100.608;2023-02-20T21:08:12;1012.39;;;29.68;52.10
37170;BME280;23062;13.952;100.608;2023-02-20T21:12:37;1012.42;;;29.70;52.12
37170;BME280;23062;13.952;100.608;2023-02-20T21:17:07;1012.48;;;29.70;52.62
37170;BME280;23062;13.952;100.608;2023-02-20T21:21:33;1012.53;;;29.69;52.57
37170;BME280;23062;13.952;100.608;2023-02-20T21:25:59;1012.61;;;29.67;53.28
37170;BME280;23062;13.952;100.608;2023-02-20T21:30:26;1012.70;;;29.70;55.82
37170;BME280;23062;13.952;100.608;2023-02-20T21:34:52;1012.68;;;29.66;55.90
37170;BME280;23062;13.952;100.608;2023-02-20T21:39:24;1012.65;;;29.06;56.36
37170;BME280;23062;13.952;100.608;2023-02-20T21:43:49;1012.64;;;28.83;57.56
37170;BME280;23062;13.952;100.608;2023-02-20T21:48:39;1012.71;;;28.67;57.47
37170;BME280;23062;13.952;100.608;2023-02-20T21:53:08;1012.73;;;28.56;57.67
37170;BME280;23062;13.952;100.608;2023-02-20T21:57:37;1012.74;;;28.53;57.83
37170;BME280;23062;13.952;100.608;2023-02-20T22:02:06;1012.73;;;28.53;58.14
37170;BME280;23062;13.952;100.608;2023-02-20T22:06:31;1012.73;;;28.52;58.59
37170;BME280;23062;13.952;100.608;2023-02-20T22:11:00;1012.78;;;28.55;58.62
37170;BME280;23062;13.952;100.608;2023-02-20T22:15:45;1012.79;;;28.50;58.93
37170;BME280;23062;13.952;100.608;2023-02-20T22:20:36;1012.82;;;28.41;58.69
37170;BME280;23062;13.952;100.608;2023-02-20T22:25:24;1012.85;;;28.42;59.14
37170;BME280;23062;13.952;100.608;2023-02-20T22:30:08;1012.93;;;28.41;59.57
37170;BME280;23062;13.952;100.608;2023-02-20T22:34:55;1012.98;;;28.41;60.10
37170;BME280;23062;13.952;100.608;2023-02-20T22:39:39;1013.09;;;28.39;60.30
37170;BME280;23062;13.952;100.608;2023-02-20T22:44:22;1013.14;;;28.61;59.93
37170;BME280;23062;13.952;100.608;2023-02-20T22:49:13;1013.19;;;28.69;59.70
37170;BME280;23062;13.952;100.608;2023-02-20T22:53:58;1013.22;;;28.91;58.75
37170;BME280;23062;13.952;100.608;2023-02-20T22:58:42;1013.20;;;29.04;58.22
37170;BME280;23062;13.952;100.608;2023-02-20T23:03:33;1013.22;;;29.07;57.90
37170;BME280;23062;13.952;100.608;2023-02-20T23:08:19;1013.31;;;29.09;57.48
37170;BME280;23062;13.952;100.608;2023-02-20T23:13:02;1013.44;;;29.09;57.00
37170;BME280;23062;13.952;100.608;2023-02-20T23:17:52;1013.50;;;29.08;56.25
37170;BME280;23062;13.952;100.608;2023-02-20T23:22:37;1013.57;;;29.09;56.25
37170;BME280;23062;13.952;100.608;2023-02-20T23:27:24;1013.64;;;29.09;55.46
37170;BME280;23062;13.952;100.608;2023-02-20T23:32:13;1013.65;;;29.07;54.74
37170;BME280;23062;13.952;100.608;2023-02-20T23:36:57;1013.79;;;29.08;54.53
37170;BME280;23062;13.952;100.608;2023-02-20T23:41:45;1013.89;;;29.06;53.43
37170;BME280;23062;13.952;100.608;2023-02-20T23:46:34;1014.03;;;29.06;52.54
37170;BME280;23062;13.952;100.608;2023-02-20T23:51:23;1014.14;;;29.01;51.31
37170;BME280;23062;13.952;100.608;2023-02-20T23:56:07;1014.19;;;29.02;51.33
